sensor_id;sensor_type;location;lat;lon;timestamp;pressure;altitude;pressure_sealevel;temperature;humidity
4410;BME280;2218;51.408;7.208;2023-05-17T00:00:27;100465.88;;;20.73;40.53
4410;BME280;2218;51.408;7.208;2023-05-17T00:02:54;100465.88;;;20.73;40.47
4410;BME280;2218;51.408;7.208;2023-05-17T00:05:21;100469.41;;;20.74;40.62
4410;BME280;2218;51.408;7.208;2023-05-17T00:07:49;100465.16;;;20.71;40.55
4410;BME280;2218;51.408;7.208;2023-05-17T00:10:16;100464.19;;;20.72;40.44
4410;BME280;2218;51.408;7.208;2023-05-17T00:12:43;100466.84;;;20.72;40.58
4410;BME280;2218;51.408;7.208;2023-05-17T00:15:10;100459.88;;;20.71;40.45
4410;BME280;2218;51.408;7.208;2023-05-17T00:17:39;100459.88;;;20.71;40.45
4410;BME280;2218;51.408;7.208;2023-05-17T00:20:07;100460.81;;;20.70;40.47
4410;BME280;2218;51.408;7.208;2023-05-17T00:22:34;100461.78;;;20.69;40.63
4410;BME280;2218;51.408;7.208;2023-05-17T00:25:03;100466.22;;;20.69;40.69
4410;BME280;2218;51.408;7.208;2023-05-17T00:27:30;100462.63;;;20.70;40.47
4410;BME280;2218;51.408;7.208;2023-05-17T00:29:57;100464.41;;;20.69;40.61
4410;BME280;2218;51.408;7.208;2023-05-17T00:32:24;100465.25;;;20.70;40.81
4410;BME280;2218;51.408;7.208;2023-05-17T00:34:51;100467.06;;;20.69;40.39
4410;BME280;2218;51.408;7.208;2023-05-17T00:37:18;100472.34;;;20.69;40.72
4410;BME280;2218;51.408;7.208;2023-05-17T00:39:45;100485.53;;;20.69;40.55
4410;BME280;2218;51.408;7.208;2023-05-17T00:42:13;100482.97;;;20.68;40.47
4410;BME280;2218;51.408;7.208;2023-05-17T00:44:41;100478.53;;;20.68;40.56
4410;BME280;2218;51.408;7.208;2023-05-17T00:47:07;100476.84;;;20.67;40.78
4410;BME280;2218;51.408;7.208;2023-05-17T00:49:35;100479.50;;;20.67;40.68
4410;BME280;2218;51.408;7.208;2023-05-17T00:52:02;100477.81;;;20.66;40.74
4410;BME280;2218;51.408;7.208;2023-05-17T00:54:30;100470.72;;;20.67;40.70
4410;BME280;2218;51.408;7.208;2023-05-17T00:56:58;100469.88;;;20.66;40.68
4410;BME280;2218;51.408;7.208;2023-05-17T00:59:28;100478.75;;;20.65;40.68
4410;BME280;2218;51.408;7.208;2023-05-17T01:01:55;100473.47;;;20.65;40.76
4410;BME280;2218;51.408;7.208;2023-05-17T01:04:23;100468.19;;;20.65;40.60
4410;BME280;2218;51.408;7.208;2023-05-17T01:06:51;100464.72;;;20.64;40.76
4410;BME280;2218;51.408;7.208;2023-05-17T01:09:18;100472.63;;;20.64;40.78
4410;BME280;2218;51.408;7.208;2023-05-17T01:12:00;100476.13;;;20.65;40.54
4410;BME280;2218;51.408;7.208;2023-05-17T01:14:46;100468.25;;;20.63;40.81
4410;BME280;2218;51.408;7.208;2023-05-17T01:17:21;100475.34;;;20.63;40.85
4410;BME280;2218;51.408;7.208;2023-05-17T01:20:01;100470.06;;;20.63;40.70
4410;BME280;2218;51.408;7.208;2023-05-17T01:22:42;100480.63;;;20.63;40.76
4410;BME280;2218;51.408;7.208;2023-05-17T01:25:27;100478.94;;;20.62;40.86
4410;BME280;2218;51.408;7.208;2023-05-17T01:28:01;100478.94;;;20.62;40.54
4410;BME280;2218;51.408;7.208;2023-05-17T01:30:31;100482.53;;;20.61;40.98
4410;BME280;2218;51.408;7.208;2023-05-17T01:33:01;100477.25;;;20.61;40.84
4410;BME280;2218;51.408;7.208;2023-05-17T01:35:29;100481.69;;;20.60;40.99
4410;BME280;2218;51.408;7.208;2023-05-17T01:37:56;100472.06;;;20.59;40.87
4410;BME280;2218;51.408;7.208;2023-05-17T01:40:23;100475.56;;;20.60;40.96
4410;BME280;2218;51.408;7.208;2023-05-17T01:42:59;100478.19;;;20.60;41.18
4410;BME280;2218;51.408;7.208;2023-05-17T01:45:39;100481.78;;;20.59;40.99
4410;BME280;2218;51.408;7.208;2023-05-17T01:48:16;100484.44;;;20.59;40.99
4410;BME280;2218;51.408;7.208;2023-05-17T01:50:48;100479.16;;;20.59;40.86
4410;BME280;2218;51.408;7.208;2023-05-17T01:53:24;100486.19;;;20.58;41.12
4410;BME280;2218;51.408;7.208;2023-05-17T01:55:56;100488.00;;;20.58;40.93
4410;BME280;2218;51.408;7.208;2023-05-17T01:58:29;100492.44;;;20.57;41.01
4410;BME280;2218;51.408;7.208;2023-05-17T02:01:00;100490.63;;;20.58;41.04
4410;BME280;2218;51.408;7.208;2023-05-17T02:03:28;100487.16;;;20.57;40.92
4410;BME280;2218;51.408;7.208;2023-05-17T02:05:55;100491.56;;;20.57;41.03
4410;BME280;2218;51.408;7.208;2023-05-17T02:08:22;100490.84;;;20.55;40.83
4410;BME280;2218;51.408;7.208;2023-05-17T02:10:50;100491.69;;;20.55;41.08
4410;BME280;2218;51.408;7.208;2023-05-17T02:13:17;100499.59;;;20.55;40.88
4410;BME280;2218;51.408;7.208;2023-05-17T02:15:45;100496.19;;;20.53;41.12
4410;BME280;2218;51.408;7.208;2023-05-17T02:18:12;100502.34;;;20.54;41.06
4410;BME280;2218;51.408;7.208;2023-05-17T02:20:39;100506.75;;;20.53;41.01
4410;BME280;2218;51.408;7.208;2023-05-17T02:23:06;100502.34;;;20.54;41.13
4410;BME280;2218;51.408;7.208;2023-05-17T02:25:33;100506.75;;;20.53;40.96
4410;BME280;2218;51.408;7.208;2023-05-17T02:28:00;100505.91;;;20.53;40.95
4410;BME280;2218;51.408;7.208;2023-05-17T02:30:27;100498.84;;;20.53;41.20
4410;BME280;2218;51.408;7.208;2023-05-17T02:32:57;100504.22;;;20.52;41.19
4410;BME280;2218;51.408;7.208;2023-05-17T02:35:24;100500.63;;;20.53;41.09
4410;BME280;2218;51.408;7.208;2023-05-17T02:37:50;100505.00;;;20.54;41.21
4410;BME280;2218;51.408;7.208;2023-05-17T02:40:18;100507.63;;;20.54;41.36
4410;BME280;2218;51.408;7.208;2023-05-17T02:42:45;100511.19;;;20.53;41.15
4410;BME280;2218;51.408;7.208;2023-05-17T02:45:12;100513.00;;;20.52;41.08
4410;BME280;2218;51.408;7.208;2023-05-17T02:47:39;100505.91;;;20.53;41.13
4410;BME280;2218;51.408;7.208;2023-05-17T02:50:08;100515.63;;;20.52;41.17
4410;BME280;2218;51.408;7.208;2023-05-17T02:52:36;100516.59;;;20.51;41.26
4410;BME280;2218;51.408;7.208;2023-05-17T02:55:05;100522.72;;;20.52;41.16
4410;BME280;2218;51.408;7.208;2023-05-17T02:57:32;100518.38;;;20.51;41.23
4410;BME280;2218;51.408;7.208;2023-05-17T02:59:59;100528.94;;;20.51;41.46
4410;BME280;2218;51.408;7.208;2023-05-17T03:02:27;100516.59;;;20.51;41.15
4410;BME280;2218;51.408;7.208;2023-05-17T03:04:54;100520.16;;;20.50;41.21
4410;BME280;2218;51.408;7.208;2023-05-17T03:07:23;100519.31;;;20.50;41.26
4410;BME280;2218;51.408;7.208;2023-05-17T03:09:50;100527.25;;;20.50;41.38
4410;BME280;2218;51.408;7.208;2023-05-17T03:12:17;100526.28;;;20.51;41.31
4410;BME280;2218;51.408;7.208;2023-05-17T03:14:45;100521.97;;;20.50;41.26
4410;BME280;2218;51.408;7.208;2023-05-17T03:17:12;100531.69;;;20.49;41.38
4410;BME280;2218;51.408;7.208;2023-05-17T03:19:40;100530.84;;;20.49;41.37
4410;BME280;2218;51.408;7.208;2023-05-17T03:22:07;100524.59;;;20.50;41.21
4410;BME280;2218;51.408;7.208;2023-05-17T03:24:35;100535.25;;;20.48;41.26
4410;BME280;2218;51.408;7.208;2023-05-17T03:27:03;100536.13;;;20.49;41.31
4410;BME280;2218;51.408;7.208;2023-05-17T03:29:31;100536.97;;;20.49;41.39
4410;BME280;2218;51.408;7.208;2023-05-17T03:31:58;100536.97;;;20.49;41.23
4410;BME280;2218;51.408;7.208;2023-05-17T03:34:25;100536.13;;;20.49;41.33
4410;BME280;2218;51.408;7.208;2023-05-17T03:36:53;100539.69;;;20.48;41.33
4410;BME280;2218;51.408;7.208;2023-05-17T03:39:19;100550.25;;;20.48;41.54
4410;BME280;2218;51.408;7.208;2023-05-17T03:41:48;100548.44;;;20.48;41.42
4410;BME280;2218;51.408;7.208;2023-05-17T03:44:16;100546.75;;;20.47;41.50
4410;BME280;2218;51.408;7.208;2023-05-17T03:46:43;100553.81;;;20.47;41.39
4410;BME280;2218;51.408;7.208;2023-05-17T03:49:11;100552.03;;;20.47;41.50
4410;BME280;2218;51.408;7.208;2023-05-17T03:51:38;100548.53;;;20.47;41.57
4410;BME280;2218;51.408;7.208;2023-05-17T03:54:06;100543.25;;;20.47;41.42
4410;BME280;2218;51.408;7.208;2023-05-17T03:56:33;100547.66;;;20.46;41.48
4410;BME280;2218;51.408;7.208;2023-05-17T03:59:01;100559.09;;;20.47;41.36
4410;BME280;2218;51.408;7.208;2023-05-17T04:01:29;100561.81;;;20.45;41.35
4410;BME280;2218;51.408;7.208;2023-05-17T04:03:57;100574.06;;;20.46;41.51
4410;BME280;2218;51.408;7.208;2023-05-17T04:06:25;100567.03;;;20.47;41.43
4410;BME280;2218;51.408;7.208;2023-05-17T04:08:53;100584.63;;;20.46;41.40
4410;BME280;2218;51.408;7.208;2023-05-17T04:11:21;100588.16;;;20.47;41.31
4410;BME280;2218;51.408;7.208;2023-05-17T04:13:49;100589.84;;;20.48;41.36
4410;BME280;2218;51.408;7.208;2023-05-17T04:16:17;100581.94;;;20.48;41.57
4410;BME280;2218;51.408;7.208;2023-05-17T04:18:44;100593.25;;;20.50;41.30
4410;BME280;2218;51.408;7.208;2023-05-17T04:21:11;100594.94;;;20.51;41.40
4410;BME280;2218;51.408;7.208;2023-05-17T04:23:39;100602.78;;;20.52;41.34
4410;BME280;2218;51.408;7.208;2023-05-17T04:26:06;100602.72;;;20.54;41.35
4410;BME280;2218;51.408;7.208;2023-05-17T04:28:37;100607.03;;;20.55;41.34
4410;BME280;2218;51.408;7.208;2023-05-17T04:31:06;100604.41;;;20.55;41.47
4410;BME280;2218;51.408;7.208;2023-05-17T04:33:35;100606.09;;;20.56;41.53
4410;BME280;2218;51.408;7.208;2023-05-17T04:36:03;100607.78;;;20.57;41.41
4410;BME280;2218;51.408;7.208;2023-05-17T04:38:31;100613.91;;;20.57;41.37
4410;BME280;2218;51.408;7.208;2023-05-17T04:41:00;100616.47;;;20.59;41.48
4410;BME280;2218;51.408;7.208;2023-05-17T04:43:30;100614.69;;;20.59;41.56
4410;BME280;2218;51.408;7.208;2023-05-17T04:45:58;100615.53;;;20.60;41.34
4410;BME280;2218;51.408;7.208;2023-05-17T04:48:26;100618.16;;;20.60;41.34
4410;BME280;2218;51.408;7.208;2023-05-17T04:50:54;100610.16;;;20.61;41.41
4410;BME280;2218;51.408;7.208;2023-05-17T04:53:21;100610.16;;;20.61;41.48
4410;BME280;2218;51.408;7.208;2023-05-17T04:55:49;100617.13;;;20.62;41.41
4410;BME280;2218;51.408;7.208;2023-05-17T04:58:16;100637.31;;;20.63;41.52
4410;BME280;2218;51.408;7.208;2023-05-17T05:00:48;100635.44;;;20.65;41.53
4410;BME280;2218;51.408;7.208;2023-05-17T05:03:16;100623.91;;;20.67;41.53
4410;BME280;2218;51.408;7.208;2023-05-17T05:05:44;100628.34;;;20.66;41.62
4410;BME280;2218;51.408;7.208;2023-05-17T05:08:14;100635.25;;;20.69;41.84
4410;BME280;2218;51.408;7.208;2023-05-17T05:10:44;100639.22;;;20.76;41.91
4410;BME280;2218;51.408;7.208;2023-05-17T05:13:13;100641.38;;;20.83;41.27
4410;BME280;2218;51.408;7.208;2023-05-17T05:15:41;100646.31;;;20.89;41.30
4410;BME280;2218;51.408;7.208;2023-05-17T05:18:08;100647.72;;;20.95;41.35
4410;BME280;2218;51.408;7.208;2023-05-17T05:20:35;100656.09;;;21.02;40.98
4410;BME280;2218;51.408;7.208;2023-05-17T05:23:04;100655.81;;;21.06;40.98
4410;BME280;2218;51.408;7.208;2023-05-17T05:25:33;100664.44;;;21.10;41.00
4410;BME280;2218;51.408;7.208;2023-05-17T05:28:00;100663.38;;;21.12;41.09
4410;BME280;2218;51.408;7.208;2023-05-17T05:30:31;100664.03;;;21.16;41.00
4410;BME280;2218;51.408;7.208;2023-05-17T05:32:58;100671.56;;;21.22;40.72
4410;BME280;2218;51.408;7.208;2023-05-17T05:35:25;100666.84;;;21.27;40.99
4410;BME280;2218;51.408;7.208;2023-05-17T05:37:56;100660.47;;;21.31;41.01
4410;BME280;2218;51.408;7.208;2023-05-17T05:40:24;100660.19;;;21.36;40.94
4410;BME280;2218;51.408;7.208;2023-05-17T05:42:52;100666.97;;;21.40;40.65
4410;BME280;2218;51.408;7.208;2023-05-17T05:45:19;100668.38;;;21.46;41.00
4410;BME280;2218;51.408;7.208;2023-05-17T05:47:48;100675.25;;;21.48;40.91
4410;BME280;2218;51.408;7.208;2023-05-17T05:50:15;100672.53;;;21.50;40.91
4410;BME280;2218;51.408;7.208;2023-05-17T05:52:44;100677.63;;;21.53;41.18
4410;BME280;2218;51.408;7.208;2023-05-17T05:55:11;100678.28;;;21.56;41.00
4410;BME280;2218;51.408;7.208;2023-05-17T05:57:38;100676.28;;;21.60;41.29
4410;BME280;2218;51.408;7.208;2023-05-17T06:00:09;100680.44;;;21.64;41.39
4410;BME280;2218;51.408;7.208;2023-05-17T06:02:39;100680.22;;;21.67;41.20
4410;BME280;2218;51.408;7.208;2023-05-17T06:05:07;100676.44;;;21.71;41.32
4410;BME280;2218;51.408;7.208;2023-05-17T06:07:34;100683.25;;;21.75;40.93
4410;BME280;2218;51.408;7.208;2023-05-17T06:10:01;100679.75;;;21.75;41.16
4410;BME280;2218;51.408;7.208;2023-05-17T06:12:28;100684.75;;;21.79;41.20
4410;BME280;2218;51.408;7.208;2023-05-17T06:14:55;100684.53;;;21.82;40.77
4410;BME280;2218;51.408;7.208;2023-05-17T06:17:23;100697.88;;;21.81;41.40
4410;BME280;2218;51.408;7.208;2023-05-17T06:19:50;100697.69;;;21.84;41.15
4410;BME280;2218;51.408;7.208;2023-05-17T06:22:17;100705.72;;;21.82;41.39
4410;BME280;2218;51.408;7.208;2023-05-17T06:24:44;100706.56;;;21.83;40.91
4410;BME280;2218;51.408;7.208;2023-05-17T06:27:11;100711.78;;;21.84;41.14
4410;BME280;2218;51.408;7.208;2023-05-17T06:29:38;100707.31;;;21.85;41.11
4410;BME280;2218;51.408;7.208;2023-05-17T06:32:06;100707.22;;;21.86;41.20
4410;BME280;2218;51.408;7.208;2023-05-17T06:34:34;100717.63;;;21.89;40.89
4410;BME280;2218;51.408;7.208;2023-05-17T06:37:01;100705.41;;;21.87;41.23
4410;BME280;2218;51.408;7.208;2023-05-17T06:39:28;100701.19;;;21.84;39.66
4410;BME280;2218;51.408;7.208;2023-05-17T06:41:55;100700.03;;;21.88;38.16
4410;BME280;2218;51.408;7.208;2023-05-17T06:44:21;100703.31;;;21.92;38.22
4410;BME280;2218;51.408;7.208;2023-05-17T06:46:51;100702.50;;;21.77;37.13
4410;BME280;2218;51.408;7.208;2023-05-17T06:49:18;100705.78;;;21.54;36.97
4410;BME280;2218;51.408;7.208;2023-05-17T06:51:46;100700.13;;;21.46;36.59
4410;BME280;2218;51.408;7.208;2023-05-17T06:54:13;100702.56;;;21.20;36.46
4410;BME280;2218;51.408;7.208;2023-05-17T06:56:42;100708.66;;;20.78;36.84
4410;BME280;2218;51.408;7.208;2023-05-17T06:59:08;100715.97;;;20.43;37.39
4410;BME280;2218;51.408;7.208;2023-05-17T07:01:36;100712.97;;;20.34;37.20
4410;BME280;2218;51.408;7.208;2023-05-17T07:04:03;100716.13;;;20.25;37.92
4410;BME280;2218;51.408;7.208;2023-05-17T07:06:30;100717.78;;;20.72;37.68
4410;BME280;2218;51.408;7.208;2023-05-17T07:08:58;100723.13;;;21.01;37.98
4410;BME280;2218;51.408;7.208;2023-05-17T07:11:25;100729.09;;;21.19;38.10
4410;BME280;2218;51.408;7.208;2023-05-17T07:13:52;100716.00;;;21.31;37.66
4410;BME280;2218;51.408;7.208;2023-05-17T07:16:19;100726.00;;;21.40;37.72
4410;BME280;2218;51.408;7.208;2023-05-17T07:18:46;100731.75;;;21.47;38.07
4410;BME280;2218;51.408;7.208;2023-05-17T07:21:13;100734.09;;;21.52;37.68
4410;BME280;2218;51.408;7.208;2023-05-17T07:23:40;100739.00;;;21.58;38.14
4410;BME280;2218;51.408;7.208;2023-05-17T07:26:09;100731.84;;;21.60;38.06
4410;BME280;2218;51.408;7.208;2023-05-17T07:28:35;100737.97;;;21.60;38.14
4410;BME280;2218;51.408;7.208;2023-05-17T07:31:02;100744.97;;;21.61;38.36
4410;BME280;2218;51.408;7.208;2023-05-17T07:33:29;100749.22;;;21.64;38.49
4410;BME280;2218;51.408;7.208;2023-05-17T07:35:56;100746.38;;;21.67;38.45
4410;BME280;2218;51.408;7.208;2023-05-17T07:38:24;100746.19;;;21.70;38.60
4410;BME280;2218;51.408;7.208;2023-05-17T07:40:50;100740.06;;;21.70;38.28
4410;BME280;2218;51.408;7.208;2023-05-17T07:43:19;100744.22;;;21.74;38.25
4410;BME280;2218;51.408;7.208;2023-05-17T07:45:46;100742.31;;;21.76;38.54
4410;BME280;2218;51.408;7.208;2023-05-17T07:48:13;100747.50;;;21.77;38.25
4410;BME280;2218;51.408;7.208;2023-05-17T07:50:40;100751.84;;;21.78;38.62
4410;BME280;2218;51.408;7.208;2023-05-17T07:53:08;100752.59;;;21.80;38.84
4410;BME280;2218;51.408;7.208;2023-05-17T07:55:36;100767.53;;;21.81;38.74
4410;BME280;2218;51.408;7.208;2023-05-17T07:58:03;100774.63;;;21.81;38.15
4410;BME280;2218;51.408;7.208;2023-05-17T08:00:31;100768.47;;;21.80;38.78
4410;BME280;2218;51.408;7.208;2023-05-17T08:02:58;100768.47;;;21.80;38.48
4410;BME280;2218;51.408;7.208;2023-05-17T08:05:25;100768.47;;;21.80;37.12
4410;BME280;2218;51.408;7.208;2023-05-17T08:07:52;100772.81;;;21.81;36.64
4410;BME280;2218;51.408;7.208;2023-05-17T08:10:19;100779.81;;;21.82;37.14
4410;BME280;2218;51.408;7.208;2023-05-17T08:12:46;100771.78;;;21.84;37.32
4410;BME280;2218;51.408;7.208;2023-05-17T08:15:14;100774.31;;;21.85;36.68
4410;BME280;2218;51.408;7.208;2023-05-17T08:17:42;100776.03;;;21.86;36.87
4410;BME280;2218;51.408;7.208;2023-05-17T08:20:09;100770.63;;;21.88;37.25
4410;BME280;2218;51.408;7.208;2023-05-17T08:22:36;100770.53;;;21.89;36.99
4410;BME280;2218;51.408;7.208;2023-05-17T08:25:04;100775.00;;;21.89;37.44
4410;BME280;2218;51.408;7.208;2023-05-17T08:27:31;100772.41;;;21.87;37.50
4410;BME280;2218;51.408;7.208;2023-05-17T08:29:58;100772.41;;;21.87;37.31
4410;BME280;2218;51.408;7.208;2023-05-17T08:32:25;100774.31;;;21.85;37.99
4410;BME280;2218;51.408;7.208;2023-05-17T08:34:54;100778.78;;;21.85;37.95
4410;BME280;2218;51.408;7.208;2023-05-17T08:37:21;100776.03;;;21.86;38.02
4410;BME280;2218;51.408;7.208;2023-05-17T08:39:49;100782.25;;;21.85;38.34
4410;BME280;2218;51.408;7.208;2023-05-17T08:42:21;100774.50;;;21.82;38.62
4410;BME280;2218;51.408;7.208;2023-05-17T08:44:50;100779.91;;;21.81;38.33
4410;BME280;2218;51.408;7.208;2023-05-17T08:47:19;100788.69;;;21.81;38.64
4410;BME280;2218;51.408;7.208;2023-05-17T08:49:56;100790.59;;;21.79;38.41
4410;BME280;2218;51.408;7.208;2023-05-17T08:52:28;100793.25;;;21.79;38.93
4410;BME280;2218;51.408;7.208;2023-05-17T08:54:57;100787.84;;;21.81;39.01
4410;BME280;2218;51.408;7.208;2023-05-17T08:57:29;100790.38;;;21.82;39.04
4410;BME280;2218;51.408;7.208;2023-05-17T08:59:57;100790.38;;;21.82;38.27
4410;BME280;2218;51.408;7.208;2023-05-17T09:02:26;100789.53;;;21.82;38.54
4410;BME280;2218;51.408;7.208;2023-05-17T09:04:57;100787.84;;;21.81;38.27
4410;BME280;2218;51.408;7.208;2023-05-17T09:07:24;100791.34;;;21.81;37.67
4410;BME280;2218;51.408;7.208;2023-05-17T09:09:51;100781.53;;;21.83;37.75
4410;BME280;2218;51.408;7.208;2023-05-17T09:12:19;100775.34;;;21.83;37.73
4410;BME280;2218;51.408;7.208;2023-05-17T09:14:46;100781.53;;;21.83;37.61
4410;BME280;2218;51.408;7.208;2023-05-17T09:17:16;100785.94;;;21.83;37.40
4410;BME280;2218;51.408;7.208;2023-05-17T09:19:44;100783.28;;;21.83;37.74
4410;BME280;2218;51.408;7.208;2023-05-17T09:22:13;100788.50;;;21.84;37.36
4410;BME280;2218;51.408;7.208;2023-05-17T09:24:41;100791.16;;;21.84;37.36
4410;BME280;2218;51.408;7.208;2023-05-17T09:27:13;100794.66;;;21.85;36.84
4410;BME280;2218;51.408;7.208;2023-05-17T09:29:43;100787.44;;;21.87;36.32
4410;BME280;2218;51.408;7.208;2023-05-17T09:32:16;100800.59;;;21.88;36.55
4410;BME280;2218;51.408;7.208;2023-05-17T09:34:45;100796.25;;;21.87;36.79
4410;BME280;2218;51.408;7.208;2023-05-17T09:37:16;100796.25;;;21.87;36.49
4410;BME280;2218;51.408;7.208;2023-05-17T09:39:45;100792.66;;;21.88;36.78
4410;BME280;2218;51.408;7.208;2023-05-17T09:42:13;100796.16;;;21.89;37.34
4410;BME280;2218;51.408;7.208;2023-05-17T09:44:50;100792.84;;;21.85;37.43
4410;BME280;2218;51.408;7.208;2023-05-17T09:47:26;100795.59;;;21.84;37.13
4410;BME280;2218;51.408;7.208;2023-05-17T09:49:55;100790.19;;;21.85;37.40
4410;BME280;2218;51.408;7.208;2023-05-17T09:52:24;100791.91;;;21.86;36.63
4410;BME280;2218;51.408;7.208;2023-05-17T09:54:53;100795.31;;;21.88;37.31
4410;BME280;2218;51.408;7.208;2023-05-17T09:57:21;100787.44;;;21.87;37.29
4410;BME280;2218;51.408;7.208;2023-05-17T09:59:49;100789.16;;;21.88;37.03
4410;BME280;2218;51.408;7.208;2023-05-17T10:02:21;100786.50;;;21.88;36.38
4410;BME280;2218;51.408;7.208;2023-05-17T10:04:49;100784.72;;;21.88;36.50
4410;BME280;2218;51.408;7.208;2023-05-17T10:07:20;100788.41;;;21.86;36.49
4410;BME280;2218;51.408;7.208;2023-05-17T10:09:48;100788.41;;;21.86;36.40
4410;BME280;2218;51.408;7.208;2023-05-17T10:12:21;100782.16;;;21.87;35.84
4410;BME280;2218;51.408;7.208;2023-05-17T10:14:49;100779.50;;;21.87;35.82
4410;BME280;2218;51.408;7.208;2023-05-17T10:17:18;100779.44;;;21.88;35.98
4410;BME280;2218;51.408;7.208;2023-05-17T10:19:45;100767.13;;;21.87;35.83
4410;BME280;2218;51.408;7.208;2023-05-17T10:22:13;100765.44;;;21.86;36.40
4410;BME280;2218;51.408;7.208;2023-05-17T10:24:43;100766.50;;;21.84;36.56
4410;BME280;2218;51.408;7.208;2023-05-17T10:27:12;100770.94;;;21.83;36.33
4410;BME280;2218;51.408;7.208;2023-05-17T10:29:41;100767.53;;;21.81;36.35
4410;BME280;2218;51.408;7.208;2023-05-17T10:32:12;100771.13;;;21.80;36.57
4410;BME280;2218;51.408;7.208;2023-05-17T10:34:42;100760.53;;;21.80;36.76
4410;BME280;2218;51.408;7.208;2023-05-17T10:37:10;100766.69;;;21.81;37.03
4410;BME280;2218;51.408;7.208;2023-05-17T10:39:40;100756.09;;;21.81;36.83
4410;BME280;2218;51.408;7.208;2023-05-17T10:42:15;100764.88;;;21.81;37.07
4410;BME280;2218;51.408;7.208;2023-05-17T10:44:43;100764.97;;;21.80;37.01
4410;BME280;2218;51.408;7.208;2023-05-17T10:47:12;100772.06;;;21.79;36.85
4410;BME280;2218;51.408;7.208;2023-05-17T10:49:40;100763.38;;;21.77;37.04
4410;BME280;2218;51.408;7.208;2023-05-17T10:52:14;100767.75;;;21.78;37.14
4410;BME280;2218;51.408;7.208;2023-05-17T10:54:43;100762.44;;;21.78;37.32
4410;BME280;2218;51.408;7.208;2023-05-17T10:57:21;100758.84;;;21.79;36.35
4410;BME280;2218;51.408;7.208;2023-05-17T10:59:56;100757.16;;;21.78;36.05
4410;BME280;2218;51.408;7.208;2023-05-17T11:02:25;100754.50;;;21.78;35.97
4410;BME280;2218;51.408;7.208;2023-05-17T11:04:53;100758.84;;;21.79;36.12
4410;BME280;2218;51.408;7.208;2023-05-17T11:07:26;100763.28;;;21.79;36.07
4410;BME280;2218;51.408;7.208;2023-05-17T11:10:07;100765.81;;;21.80;35.83
4410;BME280;2218;51.408;7.208;2023-05-17T11:12:39;100759.03;;;21.76;35.73
4410;BME280;2218;51.408;7.208;2023-05-17T11:15:10;100759.97;;;21.75;35.89
4410;BME280;2218;51.408;7.208;2023-05-17T11:17:49;100760.09;;;21.74;35.77
4410;BME280;2218;51.408;7.208;2023-05-17T11:20:32;100760.94;;;21.74;35.76
4410;BME280;2218;51.408;7.208;2023-05-17T11:23:03;100752.03;;;21.75;36.60
4410;BME280;2218;51.408;7.208;2023-05-17T11:25:33;100747.59;;;21.76;36.08
4410;BME280;2218;51.408;7.208;2023-05-17T11:28:06;100765.28;;;21.75;36.06
4410;BME280;2218;51.408;7.208;2023-05-17T11:30:40;100762.53;;;21.77;36.07
4410;BME280;2218;51.408;7.208;2023-05-17T11:33:08;100758.84;;;21.79;36.13
4410;BME280;2218;51.408;7.208;2023-05-17T11:35:37;100755.25;;;21.80;35.88
4410;BME280;2218;51.408;7.208;2023-05-17T11:38:16;100749.94;;;21.80;36.09
4410;BME280;2218;51.408;7.208;2023-05-17T11:40:44;100752.72;;;21.79;35.54
4410;BME280;2218;51.408;7.208;2023-05-17T11:43:15;100759.69;;;21.80;34.86
4410;BME280;2218;51.408;7.208;2023-05-17T11:45:45;100755.34;;;21.79;35.13
4410;BME280;2218;51.408;7.208;2023-05-17T11:48:14;100751.84;;;21.78;35.70
4410;BME280;2218;51.408;7.208;2023-05-17T11:50:44;100752.78;;;21.77;35.81
4410;BME280;2218;51.408;7.208;2023-05-17T11:53:12;100744.66;;;21.80;35.81
4410;BME280;2218;51.408;7.208;2023-05-17T11:55:41;100747.19;;;21.82;34.80
4410;BME280;2218;51.408;7.208;2023-05-17T11:58:11;100747.19;;;21.82;35.24
4410;BME280;2218;51.408;7.208;2023-05-17T12:00:40;100742.97;;;21.79;35.91
4410;BME280;2218;51.408;7.208;2023-05-17T12:03:17;100750.13;;;21.77;35.82
4410;BME280;2218;51.408;7.208;2023-05-17T12:05:46;100744.09;;;21.75;35.92
4410;BME280;2218;51.408;7.208;2023-05-17T12:08:15;100743.25;;;21.75;36.28
4410;BME280;2218;51.408;7.208;2023-05-17T12:10:48;100745.78;;;21.76;36.32
4410;BME280;2218;51.408;7.208;2023-05-17T12:13:16;100752.88;;;21.76;36.13
4410;BME280;2218;51.408;7.208;2023-05-17T12:15:52;100749.41;;;21.75;36.23
4410;BME280;2218;51.408;7.208;2023-05-17T12:18:20;100748.44;;;21.76;36.44
4410;BME280;2218;51.408;7.208;2023-05-17T12:20:55;100745.78;;;21.76;36.65
4410;BME280;2218;51.408;7.208;2023-05-17T12:23:29;100739.75;;;21.74;36.87
4410;BME280;2218;51.408;7.208;2023-05-17T12:26:06;100753.06;;;21.73;37.15
4410;BME280;2218;51.408;7.208;2023-05-17T12:28:35;100753.94;;;21.73;37.01
4410;BME280;2218;51.408;7.208;2023-05-17T12:31:08;100754.59;;;21.77;36.58
4410;BME280;2218;51.408;7.208;2023-05-17T12:33:40;100754.50;;;21.78;36.73
4410;BME280;2218;51.408;7.208;2023-05-17T12:36:10;100749.94;;;21.80;36.44
4410;BME280;2218;51.408;7.208;2023-05-17T12:38:40;100752.59;;;21.80;36.59
4410;BME280;2218;51.408;7.208;2023-05-17T12:41:10;100748.03;;;21.82;36.33
4410;BME280;2218;51.408;7.208;2023-05-17T12:43:40;100754.19;;;21.83;36.36
4410;BME280;2218;51.408;7.208;2023-05-17T12:46:13;100762.91;;;21.85;35.43
4410;BME280;2218;51.408;7.208;2023-05-17T12:48:42;100751.34;;;21.86;35.72
4410;BME280;2218;51.408;7.208;2023-05-17T12:51:11;100757.38;;;21.88;35.85
4410;BME280;2218;51.408;7.208;2023-05-17T12:53:41;100761.00;;;21.87;35.98
4410;BME280;2218;51.408;7.208;2023-05-17T12:56:16;100756.66;;;21.86;35.01
4410;BME280;2218;51.408;7.208;2023-05-17T12:59:03;100749.66;;;21.85;35.74
4410;BME280;2218;51.408;7.208;2023-05-17T13:01:37;100754.84;;;21.86;35.36
4410;BME280;2218;51.408;7.208;2023-05-17T13:04:05;100754.75;;;21.88;35.05
4410;BME280;2218;51.408;7.208;2023-05-17T13:06:46;100762.69;;;21.88;35.26
4410;BME280;2218;51.408;7.208;2023-05-17T13:09:14;100767.13;;;21.87;34.83
4410;BME280;2218;51.408;7.208;2023-05-17T13:11:49;100756.53;;;21.87;35.08
4410;BME280;2218;51.408;7.208;2023-05-17T13:14:35;100754.00;;;21.86;35.20
4410;BME280;2218;51.408;7.208;2023-05-17T13:17:07;100759.28;;;21.86;35.01
4410;BME280;2218;51.408;7.208;2023-05-17T13:19:35;100757.50;;;21.86;35.20